Costa Magica — IBQQ — position and weather

sailwx.info

Track history (hours):
 
Tides and Currents Weather Stations Pressure Air Temp Water Temp Dewpoint Dewpoint Depression Visibility Wind Speed Wind Dir Waves Ship Positions

Costa Magica

Last reported at 2017-Apr-24 02:34 UTC. Time now 2017-Apr-24 03:32 UTC.
Position N 36°15' W 004°58'.

Type: Ship. MMSI: 247113300.

Date/timePositionNaut miles runAvg speedWind from/ knotsBaromVisibWave heightAir tempDewpointWater temp
2017-Apr-24 02:34N 36°15' W 004°58'116.8
2017-Apr-24 02:29N 36°14' W 004°59'816.6
2017-Apr-24 02:01N 36°09' W 005°06'816.9
2017-Apr-24 01:31N 36°03' W 005°14'917.6
2017-Apr-24 01:01N 35°59' W 005°24'917.1
2017-Apr-24 00:30N 35°56' W 005°34'816.4
2017-Apr-24 00:01N 35°54' W 005°44'817.0
2017-Apr-23 23:31N 35°53' W 005°54'916.7
2017-Apr-23 22:58N 35°50' W 006°05'  
2017-Apr-21 18:31N 29°00' W 016°11'418.4
2017-Apr-21 18:19N 28°57' W 016°10'618.4
2017-Apr-21 18:00N 28°51' W 016°09'918.9
2017-Apr-21 17:30N 28°42' W 016°07'918.7
2017-Apr-21 17:00N 28°33' W 016°04'815.5
2017-Apr-21 16:30N 28°28' W 016°11'3 4.4
2017-Apr-21 15:56N 28°29' W 016°14'0 0.0
2017-Apr-21 15:29N 28°29' W 016°14'0 0.0
2017-Apr-21 14:59N 28°29' W 016°14'0 0.0
2017-Apr-21 14:17N 28°29' W 016°14'0 0.0
2017-Apr-21 13:29N 28°29' W 016°14'0 0.0
2017-Apr-21 12:59N 28°29' W 016°14'0 0.0
2017-Apr-21 12:29N 28°29' W 016°14'0 0.0
2017-Apr-21 11:50N 28°29' W 016°14'0 0.0
2017-Apr-21 11:20N 28°29' W 016°14'0 0.0
2017-Apr-21 10:50N 28°29' W 016°14'0 0.0
2017-Apr-21 10:17N 28°29' W 016°14'0 0.0
2017-Apr-21 09:35N 28°29' W 016°14'0 0.0
2017-Apr-21 09:20N 28°29' W 016°14'0 0.0
2017-Apr-21 07:41N 28°29' W 016°14'0 0.0
2017-Apr-21 07:26N 28°29' W 016°14'0 0.0
2017-Apr-21 06:59N 28°29' W 016°14'1 2.3
2017-Apr-21 06:30N 28°28' W 016°13'4 7.3
2017-Apr-21 06:00N 28°29' W 016°09'612.1
2017-Apr-21 05:30N 28°32' W 016°03'612.2
2017-Apr-21 05:00N 28°35' W 015°57'612.2
2017-Apr-21 04:30N 28°37' W 015°51'611.6
2017-Apr-21 04:00N 28°39' W 015°44'611.5
2017-Apr-21 03:30N 28°40' W 015°38'611.6
2017-Apr-21 03:00N 28°41' W 015°31'611.5
2017-Apr-21 02:30N 28°41' W 015°25'611.4
2017-Apr-21 02:00N 28°42' W 015°18'611.7
2017-Apr-21 01:30N 28°43' W 015°12'611.6
2017-Apr-21 01:00N 28°43' W 015°05'611.6
2017-Apr-21 00:30N 28°44' W 014°59'611.7
2017-Apr-21 00:00N 28°45' W 014°52'611.5
2017-Apr-20 23:29N 28°45' W 014°45'511.4
2017-Apr-20 23:00N 28°46' W 014°39'611.4
2017-Apr-20 22:29N 28°47' W 014°32'1513.2
2017-Apr-20 21:20N 28°48' W 014°15'413.5
2017-Apr-20 21:00N 28°48' W 014°10'713.5
2017-Apr-20 20:30N 28°49' W 014°02'713.5
2017-Apr-20 20:00N 28°48' W 013°54'713.9
2017-Apr-20 19:30N 28°48' W 013°47'713.5
2017-Apr-20 19:00N 28°51' W 013°40'713.1
2017-Apr-20 18:30N 28°55' W 013°33'3 5.9
2017-Apr-20 17:59N 28°58' W 013°32'0 0.0
2017-Apr-20 16:38N 28°58' W 013°32'0 0.0
2017-Apr-20 16:17N 28°58' W 013°32'0 0.0
2017-Apr-20 15:53N 28°58' W 013°32'0 0.0
2017-Apr-20 14:47N 28°58' W 013°32'0 0.0
2017-Apr-20 14:17N 28°58' W 013°32'0 0.0
2017-Apr-20 13:05N 28°58' W 013°32'0 0.0
2017-Apr-20 12:53N 28°58' W 013°32'0 0.0
2017-Apr-20 12:29N 28°58' W 013°32'0 0.0
2017-Apr-20 11:47N 28°58' W 013°32'0 1.4
2017-Apr-20 11:30N 28°58' W 013°32'4 8.7
2017-Apr-20 11:00N 28°58' W 013°27'817.3
2017-Apr-20 10:30N 29°03' W 013°19'918.2
2017-Apr-20 10:00N 29°11' W 013°13'1319.1
2017-Apr-20 09:20N 29°20' W 013°04'619.0
2017-Apr-20 09:00N 29°25' W 012°59'2118.8
2017-Apr-20 07:53N 29°41' W 012°43'718.7
2017-Apr-20 07:30N 29°47' W 012°37'19318.6
2017-Apr-19 21:09N 32°13' W 010°12'418.8
2017-Apr-19 20:58N 32°16' W 010°09'919.0
2017-Apr-19 20:30N 32°23' W 010°03'918.7
2017-Apr-19 20:00N 32°30' W 009°55'918.5
2017-Apr-19 19:30N 32°37' W 009°48'918.5
2017-Apr-19 19:00N 32°44' W 009°40'918.6
2017-Apr-19 18:30N 32°51' W 009°33'918.5
2017-Apr-19 18:00N 32°58' W 009°26'918.6
2017-Apr-19 17:30N 33°05' W 009°19'918.8
2017-Apr-19 17:00N 33°12' W 009°12'918.6
2017-Apr-19 16:30N 33°19' W 009°04'918.7
2017-Apr-19 16:01N 33°26' W 008°57'918.8
2017-Apr-19 15:30N 33°33' W 008°50'1018.8
2017-Apr-19 14:59N 33°40' W 008°42'1618.8
2017-Apr-19 14:07N 33°53' W 008°30'4518.7
2017-Apr-19 11:43N 34°25' W 007°51'1518.5
2017-Apr-19 10:55N 34°35' W 007°38'818.5
2017-Apr-19 10:30N 34°40' W 007°32'918.6
2017-Apr-19 10:00N 34°47' W 007°24'2818.5
2017-Apr-19 08:30N 35°06' W 006°59'6319.3
2017-Apr-19 05:13N 35°50' W 006°04'420.2
2017-Apr-19 05:00N 35°53' W 005°60'919.1
2017-Apr-19 04:30N 35°57' W 005°49'1020.4
2017-Apr-19 04:00N 35°58' W 005°37'918.8
2017-Apr-19 03:30N 36°01' W 005°26'918.1
2017-Apr-19 03:00N 36°03' W 005°15'918.7
2017-Apr-19 02:30N 36°04' W 005°03'1019.7
2017-Apr-19 02:00N 36°05' W 004°51'1019.2
2017-Apr-19 01:30N 36°07' W 004°39'918.9
2017-Apr-19 01:00N 36°08' W 004°28'918.6
2017-Apr-19 00:30N 36°09' W 004°16'918.9
2017-Apr-19 00:00N 36°11' W 004°05'1020.3
2017-Apr-18 23:30N 36°13' W 003°53'1020.0
2017-Apr-18 23:00N 36°15' W 003°41'1020.1
2017-Apr-18 22:30N 36°16' W 003°28'1020.3
2017-Apr-18 22:00N 36°18' W 003°16'1020.4
2017-Apr-18 21:30N 36°19' W 003°03'1020.1
2017-Apr-18 21:00N 36°21' W 002°51'1120.0
2017-Apr-18 20:26N 36°22' W 002°37'919.9
2017-Apr-18 20:00N 36°24' W 002°26'1019.9
2017-Apr-18 19:30N 36°26' W 002°14'1018.7
2017-Apr-18 18:57N 36°34' W 002°06'918.2
2017-Apr-18 18:28N 36°43' W 002°05'2 4.0
2017-Apr-18 18:00N 36°44' W 002°03'918.3
2017-Apr-18 17:30N 36°45' W 001°52'1020.1
2017-Apr-18 17:00N 36°49' W 001°40'1019.8
2017-Apr-18 16:30N 36°54' W 001°29'1020.0
2017-Apr-18 16:00N 37°01' W 001°20'1020.1
2017-Apr-18 15:30N 37°07' W 001°10'1020.1
2017-Apr-18 15:00N 37°14' W 001°01'2019.8
2017-Apr-18 14:00N 37°28' W 000°43'1020.0
2017-Apr-18 13:30N 37°34' W 000°34'1019.8
2017-Apr-18 13:00N 37°42' W 000°26'1019.6
2017-Apr-18 12:29N 37°51' W 000°19'919.7
2017-Apr-18 12:00N 37°59' W 000°13'1019.6
2017-Apr-18 11:29N 38°08' W 000°06'919.6
2017-Apr-18 11:00N 38°15' E 000°01'1019.5
2017-Apr-18 10:30N 38°24' E 000°08'4819.8
2017-Apr-18 08:05N 39°02' E 000°44'420.2
2017-Apr-18 07:53N 39°06' E 000°47'820.2
2017-Apr-18 07:30N 39°12' E 000°53'1019.9
2017-Apr-18 07:00N 39°19' E 001°01'1019.8
2017-Apr-18 06:30N 39°27' E 001°09'1020.1
2017-Apr-18 06:00N 39°35' E 001°17'1020.1
2017-Apr-18 05:30N 39°43' E 001°25'1020.1
2017-Apr-18 05:00N 39°51' E 001°34'1020.0
2017-Apr-18 04:30N 39°58' E 001°42'1020.1
2017-Apr-18 04:00N 40°06' E 001°50'1020.3
2017-Apr-18 03:30N 40°14' E 001°58'1020.6
2017-Apr-18 03:00N 40°22' E 002°07'1020.4
2017-Apr-18 02:30N 40°30' E 002°15'1020.5
2017-Apr-18 02:00N 40°38' E 002°23'1020.1
2017-Apr-18 01:31N 40°46' E 002°32'1020.1
2017-Apr-18 01:00N 40°54' E 002°40'1019.9
2017-Apr-18 00:30N 41°02' E 002°48'1020.1
2017-Apr-18 00:00N 41°10' E 002°57'1020.7
2017-Apr-17 23:30N 41°18' E 003°05'1020.6
2017-Apr-17 23:00N 41°26' E 003°14'1020.5
2017-Apr-17 22:30N 41°34' E 003°22'1020.3
2017-Apr-17 22:00N 41°42' E 003°31'1020.0
2017-Apr-17 21:30N 41°50' E 003°38'1019.8
2017-Apr-17 21:00N 41°58' E 003°46'1020.3
2017-Apr-17 20:30N 42°06' E 003°54'1019.7
2017-Apr-17 20:00N 42°13' E 004°03'1019.4
2017-Apr-17 19:30N 42°20' E 004°12'1219.8
2017-Apr-17 18:53N 42°30' E 004°23'719.5
2017-Apr-17 18:30N 42°36' E 004°29'1019.8
2017-Apr-17 18:00N 42°43' E 004°37'1019.9
2017-Apr-17 17:30N 42°51' E 004°46'1019.7
2017-Apr-17 17:00N 42°59' E 004°54'1319.2
2017-Apr-17 16:18N 43°09' E 005°06'618.9
2017-Apr-17 16:00N 43°14' E 005°11'815.6
2017-Apr-17 15:31N 43°20' E 005°17'2 0.2
2017-Apr-17 05:26N 43°21' E 005°20'4 8.3
2017-Apr-17 05:00N 43°19' E 005°15'612.4
2017-Apr-17 04:30N 43°14' E 005°11'6413.2
2017-Apr-16 23:40N 42°54' E 006°34'513.6
2017-Apr-16 23:16N 42°58' E 006°39'414.0
2017-Apr-16 22:59N 43°00' E 006°44'714.4
2017-Apr-16 22:30N 43°04' E 006°51'814.0
2017-Apr-16 21:58N 43°09' E 006°59'613.1
2017-Apr-16 21:30N 43°12' E 007°06'612.7
2017-Apr-16 21:00N 43°16' E 007°13'713.2
2017-Apr-16 20:30N 43°20' E 007°20'713.3
2017-Apr-16 20:00N 43°25' E 007°27'713.7
2017-Apr-16 19:30N 43°29' E 007°34'613.0
2017-Apr-16 19:01N 43°33' E 007°41'714.0
2017-Apr-16 18:30N 43°38' E 007°48'917.4
2017-Apr-16 18:00N 43°43' E 007°58'917.2
2017-Apr-16 17:30N 43°49' E 008°07'816.9
2017-Apr-16 17:00N 43°55' E 008°15'816.6
2017-Apr-16 16:30N 44°02' E 008°21'816.2
2017-Apr-16 16:00N 44°08' E 008°28'815.5
2017-Apr-16 15:31N 44°16' E 008°32'4 7.6
2017-Apr-16 15:00N 44°19' E 008°30'1 0.7
2017-Apr-16 14:00N 44°19' E 008°29'0 0.0
2017-Apr-16 13:30N 44°19' E 008°29'0 0.0
2017-Apr-16 12:57N 44°19' E 008°29'0 0.0
2017-Apr-16 12:27N 44°19' E 008°29'0 0.0
2017-Apr-16 12:00N 44°19' E 008°29'0 0.0
2017-Apr-16 11:30N 44°19' E 008°29'0 0.0
2017-Apr-16 11:00N 44°19' E 008°29'0 0.0
2017-Apr-16 10:30N 44°19' E 008°29'0 0.0
2017-Apr-16 10:00N 44°19' E 008°29'0 0.0
2017-Apr-16 09:30N 44°19' E 008°29'0 0.0
2017-Apr-16 09:00N 44°19' E 008°29'0 0.0
2017-Apr-16 08:30N 44°19' E 008°29'0 0.0
2017-Apr-16 08:00N 44°19' E 008°29'0 0.0
2017-Apr-16 07:30N 44°19' E 008°29'0 0.0
2017-Apr-16 07:00N 44°19' E 008°29'0 0.0
2017-Apr-16 06:30N 44°19' E 008°29'1 2.1
2017-Apr-16 06:00N 44°19' E 008°31'611.1
2017-Apr-16 05:31N 44°14' E 008°35'816.2
2017-Apr-16 05:01N 44°07' E 008°41'816.4
2017-Apr-16 04:31N 44°00' E 008°47'816.9
2017-Apr-16 04:00N 43°53' E 008°53'817.0
2017-Apr-16 03:31N 43°46' E 008°60'816.8
2017-Apr-16 03:00N 43°39' E 009°06'816.8
2017-Apr-16 02:31N 43°32' E 009°12'816.8
2017-Apr-16 02:01N 43°25' E 009°19'816.4
2017-Apr-16 01:31N 43°18' E 009°24'816.3
2017-Apr-16 01:01N 43°11' E 009°30'816.5
2017-Apr-16 00:30N 43°04' E 009°37'816.4
2017-Apr-16 00:01N 42°56' E 009°40'815.9
2017-Apr-15 23:30N 42°50' E 009°48'916.7
2017-Apr-15 22:57N 42°45' E 009°58'916.5
2017-Apr-15 22:23N 42°40' E 010°08'616.6
2017-Apr-15 22:00N 42°36' E 010°15'816.8
2017-Apr-15 21:31N 42°31' E 010°24'917.4
2017-Apr-15 21:01N 42°25' E 010°33'309 9.1
2017-Apr-14 11:08N 39°37' E 004°49'2621.0
2017-Apr-14 09:53N 39°24' E 004°20'1220.9
2017-Apr-14 09:18N 39°18' E 004°06'620.9
2017-Apr-14 09:00N 39°14' E 003°59'1020.8
2017-Apr-14 08:30N 39°09' E 003°48'1020.8
2017-Apr-14 08:00N 39°04' E 003°36'1021.1
2017-Apr-14 07:30N 38°58' E 003°25'1121.3
2017-Apr-14 07:00N 38°53' E 003°13'1121.6
2017-Apr-14 06:30N 38°47' E 003°01'1121.6
2017-Apr-14 06:00N 38°42' E 002°49'1021.0
2017-Apr-14 05:30N 38°37' E 002°37'1121.3
2017-Apr-14 05:00N 38°31' E 002°26'1122.0
2017-Apr-14 04:30N 38°26' E 002°13'1122.5
2017-Apr-14 04:00N 38°20' E 002°01'1122.4
2017-Apr-14 03:30N 38°14' E 001°49'1521.7
2017-Apr-14 02:50N 38°07' E 001°33'  
Track history (hours):
 
Tides and Currents Weather Stations Pressure Air Temp Water Temp Dewpoint Dewpoint Depression Visibility Wind Speed Wind Dir Waves Ship Positions

Costa Magica

Last reported at 2017-Apr-24 02:34 UTC. Time now 2017-Apr-24 03:32 UTC.
Position N 36°15' W 004°58'.

Type: Ship. MMSI: 247113300.

Date/timePositionNaut miles runAvg speedWind from/ knotsBaromVisibWave heightAir tempDewpointWater temp
2017-Apr-24 02:34N 36°15' W 004°58'116.8
2017-Apr-24 02:29N 36°14' W 004°59'816.6
2017-Apr-24 02:01N 36°09' W 005°06'816.9
2017-Apr-24 01:31N 36°03' W 005°14'917.6
2017-Apr-24 01:01N 35°59' W 005°24'917.1
2017-Apr-24 00:30N 35°56' W 005°34'816.4
2017-Apr-24 00:01N 35°54' W 005°44'817.0
2017-Apr-23 23:31N 35°53' W 005°54'916.7
2017-Apr-23 22:58N 35°50' W 006°05'  
2017-Apr-21 18:31N 29°00' W 016°11'418.4
2017-Apr-21 18:19N 28°57' W 016°10'618.4
2017-Apr-21 18:00N 28°51' W 016°09'918.9
2017-Apr-21 17:30N 28°42' W 016°07'918.7
2017-Apr-21 17:00N 28°33' W 016°04'815.5
2017-Apr-21 16:30N 28°28' W 016°11'3 4.4
2017-Apr-21 15:56N 28°29' W 016°14'0 0.0
2017-Apr-21 15:29N 28°29' W 016°14'0 0.0
2017-Apr-21 14:59N 28°29' W 016°14'0 0.0
2017-Apr-21 14:17N 28°29' W 016°14'0 0.0
2017-Apr-21 13:29N 28°29' W 016°14'0 0.0
2017-Apr-21 12:59N 28°29' W 016°14'0 0.0
2017-Apr-21 12:29N 28°29' W 016°14'0 0.0
2017-Apr-21 11:50N 28°29' W 016°14'0 0.0
2017-Apr-21 11:20N 28°29' W 016°14'0 0.0
2017-Apr-21 10:50N 28°29' W 016°14'0 0.0
2017-Apr-21 10:17N 28°29' W 016°14'0 0.0
2017-Apr-21 09:35N 28°29' W 016°14'0 0.0
2017-Apr-21 09:20N 28°29' W 016°14'0 0.0
2017-Apr-21 07:41N 28°29' W 016°14'0 0.0
2017-Apr-21 07:26N 28°29' W 016°14'0 0.0
2017-Apr-21 06:59N 28°29' W 016°14'1 2.3
2017-Apr-21 06:30N 28°28' W 016°13'4 7.3
2017-Apr-21 06:00N 28°29' W 016°09'612.1
2017-Apr-21 05:30N 28°32' W 016°03'612.2
2017-Apr-21 05:00N 28°35' W 015°57'612.2
2017-Apr-21 04:30N 28°37' W 015°51'611.6
2017-Apr-21 04:00N 28°39' W 015°44'611.5
2017-Apr-21 03:30N 28°40' W 015°38'611.6
2017-Apr-21 03:00N 28°41' W 015°31'611.5
2017-Apr-21 02:30N 28°41' W 015°25'611.4
2017-Apr-21 02:00N 28°42' W 015°18'611.7
2017-Apr-21 01:30N 28°43' W 015°12'611.6
2017-Apr-21 01:00N 28°43' W 015°05'611.6
2017-Apr-21 00:30N 28°44' W 014°59'611.7
2017-Apr-21 00:00N 28°45' W 014°52'611.5
2017-Apr-20 23:29N 28°45' W 014°45'511.4
2017-Apr-20 23:00N 28°46' W 014°39'611.4
2017-Apr-20 22:29N 28°47' W 014°32'1513.2
2017-Apr-20 21:20N 28°48' W 014°15'413.5
2017-Apr-20 21:00N 28°48' W 014°10'713.5
2017-Apr-20 20:30N 28°49' W 014°02'713.5
2017-Apr-20 20:00N 28°48' W 013°54'713.9
2017-Apr-20 19:30N 28°48' W 013°47'713.5
2017-Apr-20 19:00N 28°51' W 013°40'713.1
2017-Apr-20 18:30N 28°55' W 013°33'3 5.9
2017-Apr-20 17:59N 28°58' W 013°32'0 0.0
2017-Apr-20 16:38N 28°58' W 013°32'0 0.0
2017-Apr-20 16:17N 28°58' W 013°32'0 0.0
2017-Apr-20 15:53N 28°58' W 013°32'0 0.0
2017-Apr-20 14:47N 28°58' W 013°32'0 0.0
2017-Apr-20 14:17N 28°58' W 013°32'0 0.0
2017-Apr-20 13:05N 28°58' W 013°32'0 0.0
2017-Apr-20 12:53N 28°58' W 013°32'0 0.0
2017-Apr-20 12:29N 28°58' W 013°32'0 0.0
2017-Apr-20 11:47N 28°58' W 013°32'0 1.4
2017-Apr-20 11:30N 28°58' W 013°32'4 8.7
2017-Apr-20 11:00N 28°58' W 013°27'817.3
2017-Apr-20 10:30N 29°03' W 013°19'918.2
2017-Apr-20 10:00N 29°11' W 013°13'1319.1
2017-Apr-20 09:20N 29°20' W 013°04'619.0
2017-Apr-20 09:00N 29°25' W 012°59'2118.8
2017-Apr-20 07:53N 29°41' W 012°43'718.7
2017-Apr-20 07:30N 29°47' W 012°37'19318.6
2017-Apr-19 21:09N 32°13' W 010°12'418.8
2017-Apr-19 20:58N 32°16' W 010°09'919.0
2017-Apr-19 20:30N 32°23' W 010°03'918.7
2017-Apr-19 20:00N 32°30' W 009°55'918.5
2017-Apr-19 19:30N 32°37' W 009°48'918.5
2017-Apr-19 19:00N 32°44' W 009°40'918.6
2017-Apr-19 18:30N 32°51' W 009°33'918.5
2017-Apr-19 18:00N 32°58' W 009°26'918.6
2017-Apr-19 17:30N 33°05' W 009°19'918.8
2017-Apr-19 17:00N 33°12' W 009°12'918.6
2017-Apr-19 16:30N 33°19' W 009°04'918.7
2017-Apr-19 16:01N 33°26' W 008°57'918.8
2017-Apr-19 15:30N 33°33' W 008°50'1018.8
2017-Apr-19 14:59N 33°40' W 008°42'1618.8
2017-Apr-19 14:07N 33°53' W 008°30'4518.7
2017-Apr-19 11:43N 34°25' W 007°51'1518.5
2017-Apr-19 10:55N 34°35' W 007°38'818.5
2017-Apr-19 10:30N 34°40' W 007°32'918.6
2017-Apr-19 10:00N 34°47' W 007°24'2818.5
2017-Apr-19 08:30N 35°06' W 006°59'6319.3
2017-Apr-19 05:13N 35°50' W 006°04'420.2
2017-Apr-19 05:00N 35°53' W 005°60'919.1
2017-Apr-19 04:30N 35°57' W 005°49'1020.4
2017-Apr-19 04:00N 35°58' W 005°37'918.8
2017-Apr-19 03:30N 36°01' W 005°26'918.1
2017-Apr-19 03:00N 36°03' W 005°15'918.7
2017-Apr-19 02:30N 36°04' W 005°03'1019.7
2017-Apr-19 02:00N 36°05' W 004°51'1019.2
2017-Apr-19 01:30N 36°07' W 004°39'918.9
2017-Apr-19 01:00N 36°08' W 004°28'918.6
2017-Apr-19 00:30N 36°09' W 004°16'918.9
2017-Apr-19 00:00N 36°11' W 004°05'1020.3
2017-Apr-18 23:30N 36°13' W 003°53'1020.0
2017-Apr-18 23:00N 36°15' W 003°41'1020.1
2017-Apr-18 22:30N 36°16' W 003°28'1020.3
2017-Apr-18 22:00N 36°18' W 003°16'1020.4
2017-Apr-18 21:30N 36°19' W 003°03'1020.1
2017-Apr-18 21:00N 36°21' W 002°51'1120.0
2017-Apr-18 20:26N 36°22' W 002°37'919.9
2017-Apr-18 20:00N 36°24' W 002°26'1019.9
2017-Apr-18 19:30N 36°26' W 002°14'1018.7
2017-Apr-18 18:57N 36°34' W 002°06'918.2
2017-Apr-18 18:28N 36°43' W 002°05'2 4.0
2017-Apr-18 18:00N 36°44' W 002°03'918.3
2017-Apr-18 17:30N 36°45' W 001°52'1020.1
2017-Apr-18 17:00N 36°49' W 001°40'1019.8
2017-Apr-18 16:30N 36°54' W 001°29'1020.0
2017-Apr-18 16:00N 37°01' W 001°20'1020.1
2017-Apr-18 15:30N 37°07' W 001°10'1020.1
2017-Apr-18 15:00N 37°14' W 001°01'2019.8
2017-Apr-18 14:00N 37°28' W 000°43'1020.0
2017-Apr-18 13:30N 37°34' W 000°34'1019.8
2017-Apr-18 13:00N 37°42' W 000°26'1019.6
2017-Apr-18 12:29N 37°51' W 000°19'919.7
2017-Apr-18 12:00N 37°59' W 000°13'1019.6
2017-Apr-18 11:29N 38°08' W 000°06'919.6
2017-Apr-18 11:00N 38°15' E 000°01'1019.5
2017-Apr-18 10:30N 38°24' E 000°08'4819.8
2017-Apr-18 08:05N 39°02' E 000°44'420.2
2017-Apr-18 07:53N 39°06' E 000°47'820.2
2017-Apr-18 07:30N 39°12' E 000°53'1019.9
2017-Apr-18 07:00N 39°19' E 001°01'1019.8
2017-Apr-18 06:30N 39°27' E 001°09'1020.1
2017-Apr-18 06:00N 39°35' E 001°17'1020.1
2017-Apr-18 05:30N 39°43' E 001°25'1020.1
2017-Apr-18 05:00N 39°51' E 001°34'1020.0
2017-Apr-18 04:30N 39°58' E 001°42'1020.1
2017-Apr-18 04:00N 40°06' E 001°50'1020.3
2017-Apr-18 03:30N 40°14' E 001°58'1020.6
2017-Apr-18 03:00N 40°22' E 002°07'1020.4
2017-Apr-18 02:30N 40°30' E 002°15'1020.5
2017-Apr-18 02:00N 40°38' E 002°23'1020.1
2017-Apr-18 01:31N 40°46' E 002°32'1020.1
2017-Apr-18 01:00N 40°54' E 002°40'1019.9
2017-Apr-18 00:30N 41°02' E 002°48'1020.1
2017-Apr-18 00:00N 41°10' E 002°57'1020.7
2017-Apr-17 23:30N 41°18' E 003°05'1020.6
2017-Apr-17 23:00N 41°26' E 003°14'1020.5
2017-Apr-17 22:30N 41°34' E 003°22'1020.3
2017-Apr-17 22:00N 41°42' E 003°31'1020.0
2017-Apr-17 21:30N 41°50' E 003°38'1019.8
2017-Apr-17 21:00N 41°58' E 003°46'1020.3
2017-Apr-17 20:30N 42°06' E 003°54'1019.7
2017-Apr-17 20:00N 42°13' E 004°03'1019.4
2017-Apr-17 19:30N 42°20' E 004°12'1219.8
2017-Apr-17 18:53N 42°30' E 004°23'719.5
2017-Apr-17 18:30N 42°36' E 004°29'1019.8
2017-Apr-17 18:00N 42°43' E 004°37'1019.9
2017-Apr-17 17:30N 42°51' E 004°46'1019.7
2017-Apr-17 17:00N 42°59' E 004°54'1319.2
2017-Apr-17 16:18N 43°09' E 005°06'618.9
2017-Apr-17 16:00N 43°14' E 005°11'815.6
2017-Apr-17 15:31N 43°20' E 005°17'2 0.2
2017-Apr-17 05:26N 43°21' E 005°20'4 8.3
2017-Apr-17 05:00N 43°19' E 005°15'612.4
2017-Apr-17 04:30N 43°14' E 005°11'6413.2
2017-Apr-16 23:40N 42°54' E 006°34'513.6
2017-Apr-16 23:16N 42°58' E 006°39'414.0
2017-Apr-16 22:59N 43°00' E 006°44'714.4
2017-Apr-16 22:30N 43°04' E 006°51'814.0
2017-Apr-16 21:58N 43°09' E 006°59'613.1
2017-Apr-16 21:30N 43°12' E 007°06'612.7
2017-Apr-16 21:00N 43°16' E 007°13'713.2
2017-Apr-16 20:30N 43°20' E 007°20'713.3
2017-Apr-16 20:00N 43°25' E 007°27'713.7
2017-Apr-16 19:30N 43°29' E 007°34'613.0
2017-Apr-16 19:01N 43°33' E 007°41'714.0
2017-Apr-16 18:30N 43°38' E 007°48'917.4
2017-Apr-16 18:00N 43°43' E 007°58'917.2
2017-Apr-16 17:30N 43°49' E 008°07'816.9
2017-Apr-16 17:00N 43°55' E 008°15'816.6
2017-Apr-16 16:30N 44°02' E 008°21'816.2
2017-Apr-16 16:00N 44°08' E 008°28'815.5
2017-Apr-16 15:31N 44°16' E 008°32'4 7.6
2017-Apr-16 15:00N 44°19' E 008°30'1 0.7
2017-Apr-16 14:00N 44°19' E 008°29'0 0.0
2017-Apr-16 13:30N 44°19' E 008°29'0 0.0
2017-Apr-16 12:57N 44°19' E 008°29'0 0.0
2017-Apr-16 12:27N 44°19' E 008°29'0 0.0
2017-Apr-16 12:00N 44°19' E 008°29'0 0.0
2017-Apr-16 11:30N 44°19' E 008°29'0 0.0
2017-Apr-16 11:00N 44°19' E 008°29'0 0.0
2017-Apr-16 10:30N 44°19' E 008°29'0 0.0
2017-Apr-16 10:00N 44°19' E 008°29'0 0.0
2017-Apr-16 09:30N 44°19' E 008°29'0 0.0
2017-Apr-16 09:00N 44°19' E 008°29'0 0.0
2017-Apr-16 08:30N 44°19' E 008°29'0 0.0
2017-Apr-16 08:00N 44°19' E 008°29'0 0.0
2017-Apr-16 07:30N 44°19' E 008°29'0 0.0
2017-Apr-16 07:00N 44°19' E 008°29'0 0.0
2017-Apr-16 06:30N 44°19' E 008°29'1 2.1
2017-Apr-16 06:00N 44°19' E 008°31'611.1
2017-Apr-16 05:31N 44°14' E 008°35'816.2
2017-Apr-16 05:01N 44°07' E 008°41'816.4
2017-Apr-16 04:31N 44°00' E 008°47'816.9
2017-Apr-16 04:00N 43°53' E 008°53'817.0
2017-Apr-16 03:31N 43°46' E 008°60'816.8
2017-Apr-16 03:00N 43°39' E 009°06'816.8
2017-Apr-16 02:31N 43°32' E 009°12'816.8
2017-Apr-16 02:01N 43°25' E 009°19'816.4
2017-Apr-16 01:31N 43°18' E 009°24'816.3
2017-Apr-16 01:01N 43°11' E 009°30'816.5
2017-Apr-16 00:30N 43°04' E 009°37'816.4
2017-Apr-16 00:01N 42°56' E 009°40'815.9
2017-Apr-15 23:30N 42°50' E 009°48'916.7
2017-Apr-15 22:57N 42°45' E 009°58'916.5
2017-Apr-15 22:23N 42°40' E 010°08'616.6
2017-Apr-15 22:00N 42°36' E 010°15'816.8
2017-Apr-15 21:31N 42°31' E 010°24'917.4
2017-Apr-15 21:01N 42°25' E 010°33'309 9.1
2017-Apr-14 11:08N 39°37' E 004°49'2621.0
2017-Apr-14 09:53N 39°24' E 004°20'1220.9
2017-Apr-14 09:18N 39°18' E 004°06'620.9
2017-Apr-14 09:00N 39°14' E 003°59'1020.8
2017-Apr-14 08:30N 39°09' E 003°48'1020.8
2017-Apr-14 08:00N 39°04' E 003°36'1021.1
2017-Apr-14 07:30N 38°58' E 003°25'1121.3
2017-Apr-14 07:00N 38°53' E 003°13'1121.6
2017-Apr-14 06:30N 38°47' E 003°01'1121.6
2017-Apr-14 06:00N 38°42' E 002°49'1021.0
2017-Apr-14 05:30N 38°37' E 002°37'1121.3
2017-Apr-14 05:00N 38°31' E 002°26'1122.0
2017-Apr-14 04:30N 38°26' E 002°13'1122.5
2017-Apr-14 04:00N 38°20' E 002°01'1122.4
2017-Apr-14 03:30N 38°14' E 001°49'1521.7
2017-Apr-14 02:50N 38°07' E 001°33'  

Dump ship's entire track history